createdAt,value
2022-08-01T00:02:53.984Z,13.31
2022-08-01T00:08:00.567Z,13.29
2022-08-01T00:13:03.997Z,13.27
2022-08-01T00:18:06.939Z,13.22
2022-08-01T00:23:09.785Z,13.19
2022-08-01T00:28:14.644Z,13.17
2022-08-01T00:33:17.544Z,13.11
2022-08-01T00:38:20.312Z,13.08
2022-08-01T00:43:23.267Z,13.10
2022-08-01T00:48:26.105Z,13.12
2022-08-01T00:53:28.951Z,13.14
2022-08-01T00:58:52.630Z,13.12
2022-08-01T01:03:59.013Z,13.08
2022-08-01T01:09:17.354Z,13.02
2022-08-01T01:14:32.261Z,12.99
2022-08-01T01:19:42.619Z,12.97
2022-08-01T01:25:23.201Z,12.98
2022-08-01T01:30:29.331Z,13.02
2022-08-01T01:35:39.632Z,13.01
2022-08-01T01:40:44.769Z,13.05
2022-08-01T01:45:49.880Z,13.17
2022-08-01T01:50:57.855Z,13.31
2022-08-01T01:56:02.914Z,13.45
2022-08-01T02:01:12.404Z,13.60
2022-08-01T02:06:18.188Z,13.72
2022-08-01T02:11:23.199Z,13.83
2022-08-01T02:16:29.727Z,13.93
2022-08-01T02:21:47.339Z,14.05
2022-08-01T02:26:53.458Z,14.19
2022-08-01T02:31:57.410Z,14.31
2022-08-01T02:37:02.730Z,14.43
2022-08-01T02:42:09.403Z,14.46
2022-08-01T02:47:13.922Z,14.53
2022-08-01T02:52:19.042Z,14.61
2022-08-01T02:57:51.309Z,14.72
2022-08-01T03:02:51.785Z,14.87
2022-08-01T03:07:57.124Z,14.97
2022-08-01T03:13:08.702Z,15.01
2022-08-01T03:18:14.811Z,15.12
2022-08-01T03:23:18.997Z,15.24
2022-08-01T03:28:23.290Z,15.35
2022-08-01T03:33:33.268Z,15.35
2022-08-01T03:38:40.604Z,15.37
2022-08-01T03:43:49.713Z,15.38
2022-08-01T03:48:56.848Z,15.45
2022-08-01T03:54:02.299Z,15.53
2022-08-01T03:59:05.376Z,15.61
2022-08-01T04:04:08.470Z,15.66
2022-08-01T04:09:13.880Z,15.67
2022-08-01T04:14:17.025Z,15.77
2022-08-01T04:19:19.842Z,15.85
2022-08-01T04:24:25.051Z,15.93
2022-08-01T04:29:31.075Z,15.94
2022-08-01T04:34:35.043Z,15.95
2022-08-01T04:39:50.613Z,16.06
2022-08-01T04:44:54.616Z,16.19
2022-08-01T04:49:57.952Z,16.29
2022-08-01T04:55:00.793Z,16.30
2022-08-01T05:00:04.572Z,16.31
2022-08-01T05:05:07.913Z,16.48
2022-08-01T05:10:11.118Z,16.62
2022-08-01T05:15:15.699Z,16.90
2022-08-01T05:20:18.932Z,17.10
2022-08-01T05:25:57.326Z,17.21
2022-08-01T05:30:44.998Z,17.39
2022-08-01T05:35:49.389Z,17.50
2022-08-01T05:40:52.513Z,17.55
2022-08-01T05:45:55.369Z,17.64
2022-08-01T05:50:59.085Z,17.71
2022-08-01T05:56:04.927Z,17.86
2022-08-01T06:01:07.856Z,18.02
2022-08-01T06:06:10.810Z,18.19
2022-08-01T06:11:13.779Z,18.78
2022-08-01T06:16:17.358Z,19.53
2022-08-01T06:21:20.215Z,19.75
2022-08-01T06:26:23.004Z,19.83
2022-08-01T06:31:27.619Z,19.95
2022-08-01T06:36:33.388Z,20.23
2022-08-01T06:41:36.255Z,20.86
2022-08-01T06:46:39.129Z,22.43
2022-08-01T06:51:41.948Z,24.30
2022-08-01T06:56:44.864Z,24.91
2022-08-01T07:01:47.690Z,26.11
2022-08-01T07:06:50.576Z,28.25
2022-08-01T07:11:55.051Z,30.99
2022-08-01T07:16:57.860Z,31.64
2022-08-01T07:22:00.778Z,32.82
2022-08-01T07:27:23.958Z,34.43
2022-08-01T07:32:30.489Z,35.62
2022-08-01T07:37:48.014Z,35.71
2022-08-01T07:42:52.197Z,36.19
2022-08-01T07:47:55.098Z,35.96
2022-08-01T07:52:58.226Z,35.97
2022-08-01T07:58:01.134Z,36.62
2022-08-01T08:03:04.076Z,36.66
2022-08-01T08:08:08.364Z,35.63
2022-08-01T08:13:11.186Z,34.67
2022-08-01T08:18:14.782Z,34.07
2022-08-01T08:23:41.826Z,33.93
2022-08-01T08:28:47.596Z,32.84
2022-08-01T08:33:50.277Z,31.27
2022-08-01T08:38:53.409Z,30.54
2022-08-01T08:43:57.938Z,30.51
2022-08-01T08:49:03.496Z,30.61
2022-08-01T08:54:12.275Z,30.91
2022-08-01T08:59:15.484Z,30.35
2022-08-01T09:04:18.676Z,29.59
2022-08-01T09:09:25.687Z,29.62
2022-08-01T09:14:31.643Z,29.46
2022-08-01T09:19:45.466Z,28.98
2022-08-01T09:25:04.523Z,28.62
2022-08-01T09:30:13.472Z,27.89
2022-08-01T09:35:31.092Z,27.33
2022-08-01T09:40:53.662Z,27.61
2022-08-01T09:45:58.559Z,27.65
2022-08-01T09:51:07.255Z,27.63
2022-08-01T09:56:14.000Z,27.53
2022-08-01T10:01:16.763Z,27.23
2022-08-01T10:06:24.714Z,27.00
2022-08-01T10:11:36.203Z,26.83
2022-08-01T10:16:40.415Z,26.67
2022-08-01T10:21:56.883Z,26.61
2022-08-01T10:27:09.304Z,26.33
2022-08-01T10:32:12.920Z,26.00
2022-08-01T10:37:15.964Z,25.86
2022-08-01T10:42:19.101Z,25.74
2022-08-01T10:47:51.221Z,25.50
2022-08-01T10:53:24.331Z,25.41
2022-08-01T10:58:42.546Z,25.24
2022-08-01T11:04:03.979Z,25.04
2022-08-01T11:09:17.002Z,24.82
2022-08-01T11:14:26.191Z,24.65
2022-08-01T11:20:04.979Z,24.57
2022-08-01T11:25:07.850Z,24.47
2022-08-01T11:30:13.332Z,24.33
2022-08-01T11:35:17.103Z,24.27
2022-08-01T11:40:24.876Z,24.24
2022-08-01T11:45:51.488Z,24.25
2022-08-01T11:50:56.075Z,24.26
2022-08-01T11:55:59.670Z,24.26
2022-08-01T12:01:02.521Z,24.22
2022-08-01T12:06:05.541Z,24.14
2022-08-01T12:11:08.488Z,24.10
2022-08-01T12:16:12.662Z,24.11
2022-08-01T12:21:15.501Z,24.21
2022-08-01T12:26:29.122Z,24.26
2022-08-01T12:31:35.985Z,24.34
2022-08-01T12:36:39.601Z,24.45
2022-08-01T12:41:45.030Z,24.53
2022-08-01T12:46:48.455Z,24.55
2022-08-01T12:51:57.496Z,24.56
2022-08-01T12:57:00.631Z,24.52
2022-08-01T13:02:09.936Z,24.53
2022-08-01T13:07:13.024Z,24.53
2022-08-01T13:12:15.864Z,24.60
2022-08-01T13:17:37.052Z,24.64
2022-08-01T13:22:41.352Z,24.67
2022-08-01T13:27:53.021Z,24.68
2022-08-01T13:33:01.596Z,24.71
2022-08-01T13:38:04.502Z,24.78
2022-08-01T13:43:07.456Z,24.84
2022-08-01T13:48:18.510Z,24.94
2022-08-01T13:53:22.369Z,25.01
2022-08-01T13:58:25.385Z,25.04
2022-08-01T14:03:33.748Z,25.05
2022-08-01T14:08:37.177Z,25.07
2022-08-01T14:13:45.168Z,25.12
2022-08-01T14:18:50.399Z,25.16
2022-08-01T14:23:53.251Z,25.19
2022-08-01T14:28:57.498Z,25.26
2022-08-01T14:34:00.916Z,25.29
2022-08-01T14:39:04.177Z,25.27
2022-08-01T14:44:09.146Z,25.25
2022-08-01T14:49:12.064Z,25.21
2022-08-01T14:54:15.012Z,25.26
2022-08-01T14:59:21.084Z,25.30
2022-08-01T15:04:27.365Z,25.33
2022-08-01T15:09:33.544Z,25.34
2022-08-01T15:14:49.789Z,25.38
2022-08-01T15:19:54.865Z,25.41
2022-08-01T15:25:02.751Z,25.45
2022-08-01T15:30:05.703Z,25.46
2022-08-01T15:35:11.365Z,25.49
2022-08-01T15:40:14.480Z,25.41
2022-08-01T15:45:45.932Z,25.83
2022-08-01T15:50:43.099Z,25.85
2022-08-01T15:55:52.676Z,26.13
2022-08-01T16:00:56.111Z,26.27
2022-08-01T16:06:03.124Z,25.82
2022-08-01T16:11:06.289Z,25.39
2022-08-01T16:16:11.083Z,24.99
2022-08-01T16:21:14.173Z,24.57
2022-08-01T16:26:26.981Z,24.20
2022-08-01T16:31:31.104Z,24.01
2022-08-01T16:36:41.572Z,23.78
2022-08-01T16:41:44.441Z,23.54
2022-08-01T16:46:49.258Z,23.35
2022-08-01T16:51:52.298Z,23.19
2022-08-01T16:57:07.783Z,23.01
2022-08-01T17:02:12.340Z,22.88
2022-08-01T17:07:16.169Z,22.77
2022-08-01T17:12:22.331Z,22.74
2022-08-01T17:17:26.584Z,22.77
2022-08-01T17:22:29.590Z,22.83
2022-08-01T17:27:33.263Z,22.85
2022-08-01T17:32:49.808Z,22.75
2022-08-01T17:57:23.459Z,22.58
2022-08-01T18:02:26.738Z,22.37
2022-08-01T18:08:01.777Z,22.16
2022-08-01T18:12:52.519Z,21.93
2022-08-01T18:17:58.057Z,21.74
2022-08-01T18:23:01.142Z,21.56
2022-08-01T18:28:18.913Z,21.40
2022-08-01T18:33:28.419Z,21.23
2022-08-01T18:38:33.308Z,21.08
2022-08-01T18:43:37.942Z,20.94
2022-08-01T18:48:41.686Z,20.82
2022-08-01T18:53:44.605Z,20.69
2022-08-01T18:58:49.949Z,20.56
2022-08-01T19:03:52.826Z,20.44
2022-08-01T19:09:01.530Z,20.37
2022-08-01T19:14:05.535Z,20.33
2022-08-01T19:19:09.802Z,20.31
2022-08-01T19:24:22.767Z,20.30
2022-08-01T19:29:35.890Z,20.27
2022-08-01T19:34:50.532Z,20.26
2022-08-01T19:39:53.728Z,20.24
2022-08-01T19:44:56.728Z,20.23
2022-08-01T19:50:01.162Z,20.19
2022-08-01T19:55:06.292Z,20.17
2022-08-01T20:00:13.069Z,20.13
2022-08-01T20:05:31.316Z,20.07
2022-08-01T20:10:38.865Z,19.99
2022-08-01T20:15:44.786Z,19.89
2022-08-01T20:20:49.479Z,19.80
2022-08-01T20:25:55.066Z,19.69
2022-08-01T20:31:05.408Z,19.58
2022-08-01T20:36:12.185Z,19.45
2022-08-01T20:41:28.861Z,19.31
2022-08-01T20:46:31.989Z,19.18
2022-08-01T20:51:42.061Z,19.07
2022-08-01T20:56:59.738Z,18.99
2022-08-01T21:02:28.127Z,18.89
2022-08-01T21:07:45.139Z,18.78
2022-08-01T21:13:10.779Z,18.66
2022-08-01T21:18:16.483Z,18.54
2022-08-01T21:23:39.130Z,18.46
2022-08-01T21:28:54.111Z,18.40
2022-08-01T21:34:03.215Z,18.33
2022-08-01T21:39:07.627Z,18.23
2022-08-01T21:44:14.984Z,18.11
2022-08-01T21:49:18.144Z,17.98
2022-08-01T21:54:35.515Z,17.85
2022-08-01T22:00:01.745Z,17.75
2022-08-01T22:05:11.367Z,17.67
2022-08-01T22:10:19.701Z,17.59
2022-08-01T22:15:44.333Z,17.50
2022-08-01T22:20:49.305Z,17.40
2022-08-01T22:25:56.108Z,17.28
2022-08-01T22:30:59.872Z,17.16
2022-08-01T22:36:04.122Z,17.06
2022-08-01T22:41:14.347Z,16.98
2022-08-01T22:46:42.838Z,16.90
2022-08-01T22:51:55.318Z,16.84
2022-08-01T22:57:02.413Z,16.75
2022-08-01T23:02:15.094Z,16.68
2022-08-01T23:07:26.941Z,16.61
2022-08-01T23:12:31.529Z,16.59
2022-08-01T23:17:35.221Z,16.58
2022-08-01T23:22:38.560Z,16.54
2022-08-01T23:27:52.002Z,16.51
2022-08-01T23:33:07.372Z,16.47
2022-08-01T23:38:11.062Z,16.37
2022-08-01T23:43:16.950Z,16.26
2022-08-01T23:48:20.591Z,16.17
2022-08-01T23:53:23.561Z,16.11
2022-08-01T23:58:26.522Z,16.05
